Time;durP1;ratioP1;P1;durP2;ratioP2;P2;SDS_P1;SDS_P2;PMS_P1;PMS_P2;Temp;Humidity;BMP_temperature;BMP_pressure;BME280_temperature;BME280_humidity;BME280_pressure;Samples;Min_cycle;Max_cycle;Signal;HPM_P1;HPM_P2
2022/12/11 00:01:14;;;;;;;68.70;28.73;;;;;;;;;;5034851;28;20201;-44
2022/12/11 00:03:45;;;;;;;76.47;29.23;;;;;;;;;;5034088;28;20278;-43
2022/12/11 00:06:14;;;;;;;80.43;31.40;;;;;;;;;;5033939;28;20201;-44
2022/12/11 00:08:41;;;;;;;73.27;28.70;;;;;;;;;;5034554;28;20204;-45
2022/12/11 00:11:11;;;;;;;77.93;28.50;;;;;;;;;;5034847;28;20204;-44
2022/12/11 00:13:38;;;;;;;79.93;30.37;;;;;;;;;;5033658;28;20232;-44
2022/12/11 00:16:06;;;;;;;71.90;30.47;;;;;;;;;;5034338;28;20702;-43
2022/12/11 00:18:32;;;;;;;78.13;31.27;;;;;;;;;;5034561;28;20204;-44
2022/12/11 00:21:01;;;;;;;76.17;30.80;;;;;;;;;;5034613;28;20689;-44
2022/12/11 00:23:28;;;;;;;71.73;29.27;;;;;;;;;;5034743;28;20232;-44
2022/12/11 00:25:55;;;;;;;71.50;29.80;;;;;;;;;;5035271;28;20552;-44
2022/12/11 00:28:22;;;;;;;68.47;26.93;;;;;;;;;;5034790;28;20231;-44
2022/12/11 00:30:49;;;;;;;71.40;28.43;;;;;;;;;;5034506;28;20201;-45
2022/12/11 00:33:16;;;;;;;76.27;30.27;;;;;;;;;;5034632;28;20311;-43
2022/12/11 00:35:45;;;;;;;81.10;29.30;;;;;;;;;;5035514;28;20201;-44
2022/12/11 00:38:17;;;;;;;72.87;28.97;;;;;;;;;;5038800;28;20224;-44
2022/12/11 00:40:45;;;;;;;75.37;29.17;;;;;;;;;;5038897;28;20188;-44
2022/12/11 00:43:12;;;;;;;78.07;31.23;;;;;;;;;;5038637;28;20266;-44
2022/12/11 00:45:41;;;;;;;67.27;27.10;;;;;;;;;;5038249;28;20211;-44
2022/12/11 00:48:09;;;;;;;68.83;30.93;;;;;;;;;;5038571;28;20201;-44
2022/12/11 00:50:37;;;;;;;63.43;27.33;;;;;;;;;;5038628;28;20204;-43
2022/12/11 00:53:05;;;;;;;57.43;26.10;;;;;;;;;;5038337;28;20232;-44
2022/12/11 00:55:36;;;;;;;61.07;26.77;;;;;;;;;;5038728;28;20563;-43
2022/12/11 00:58:03;;;;;;;60.37;25.20;;;;;;;;;;5038333;28;20200;-44
2022/12/11 01:00:30;;;;;;;54.77;23.50;;;;;;;;;;5038033;28;20527;-43
2022/12/11 01:02:57;;;;;;;61.97;26.43;;;;;;;;;;5038227;28;20205;-44
2022/12/11 01:05:25;;;;;;;55.73;26.13;;;;;;;;;;5038192;28;20235;-43
2022/12/11 01:07:51;;;;;;;54.40;23.90;;;;;;;;;;5038277;28;20270;-44
2022/12/11 01:10:25;;;;;;;51.13;23.10;;;;;;;;;;5038228;28;20204;-44
2022/12/11 01:13:01;;;;;;;47.70;23.30;;;;;;;;;;5037937;28;20224;-44
2022/12/11 01:15:37;;;;;;;46.53;22.10;;;;;;;;;;5037698;28;20197;-43
2022/12/11 01:18:08;;;;;;;48.73;22.23;;;;;;;;;;5037740;28;20188;-44
2022/12/11 01:20:37;;;;;;;41.63;19.47;;;;;;;;;;5037352;28;20196;-44
2022/12/11 01:23:03;;;;;;;45.80;21.23;;;;;;;;;;5037061;28;20212;-44
2022/12/11 01:25:32;;;;;;;46.43;21.83;;;;;;;;;;5037330;28;20207;-43
2022/12/11 01:27:59;;;;;;;44.37;20.90;;;;;;;;;;5037046;28;20231;-44
2022/12/11 01:30:26;;;;;;;41.63;19.80;;;;;;;;;;5037051;28;20209;-44
2022/12/11 01:32:53;;;;;;;43.23;20.13;;;;;;;;;;5037041;28;20282;-45
2022/12/11 01:35:20;;;;;;;42.93;18.80;;;;;;;;;;5037405;28;20235;-43
2022/12/11 01:37:47;;;;;;;42.10;20.33;;;;;;;;;;5037184;28;20216;-44
2022/12/11 01:40:17;;;;;;;49.03;23.30;;;;;;;;;;5036979;28;20270;-44
2022/12/11 01:42:44;;;;;;;45.07;22.50;;;;;;;;;;5037662;28;20201;-46
2022/12/11 01:45:20;;;;;;;45.37;21.57;;;;;;;;;;5037063;28;20631;-44
2022/12/11 01:47:55;;;;;;;42.43;20.20;;;;;;;;;;5036646;28;20283;-44
2022/12/11 01:50:23;;;;;;;46.10;21.47;;;;;;;;;;5037141;28;20222;-44
2022/12/11 01:52:50;;;;;;;45.47;20.93;;;;;;;;;;5036915;28;20228;-45
2022/12/11 01:55:19;;;;;;;44.87;21.10;;;;;;;;;;5036260;28;20208;-44
2022/12/11 01:57:47;;;;;;;46.50;22.20;;;;;;;;;;5037338;28;20269;-44
2022/12/11 02:00:15;;;;;;;45.47;20.37;;;;;;;;;;5036339;28;20252;-44
2022/12/11 02:02:43;;;;;;;47.20;21.93;;;;;;;;;;5036868;28;20639;-44
2022/12/11 02:05:10;;;;;;;51.77;22.27;;;;;;;;;;5036905;28;20588;-44
2022/12/11 02:07:49;;;;;;;45.87;20.10;;;;;;;;;;5036813;28;20592;-44
2022/12/11 02:10:16;;;;;;;46.83;21.57;;;;;;;;;;5037008;28;20658;-44
2022/12/11 02:12:52;;;;;;;45.70;21.90;;;;;;;;;;5036930;28;20207;-44
2022/12/11 02:15:30;;;;;;;51.57;23.60;;;;;;;;;;5036805;28;20212;-44
2022/12/11 02:18:06;;;;;;;47.80;20.70;;;;;;;;;;5036925;28;20208;-44
2022/12/11 02:20:37;;;;;;;46.97;20.43;;;;;;;;;;5036627;28;20207;-44
2022/12/11 02:23:10;;;;;;;50.17;22.07;;;;;;;;;;5036657;28;20553;-44
2022/12/11 02:26:05;;;;;;;47.83;21.60;;;;;;;;;;5036585;28;20205;-44
2022/12/11 02:28:46;;;;;;;45.67;20.63;;;;;;;;;;5036285;28;20216;-44
2022/12/11 02:31:21;;;;;;;48.67;21.20;;;;;;;;;;5035494;28;20189;-43
2022/12/11 02:34:01;;;;;;;54.07;21.93;;;;;;;;;;5036349;28;20290;-44
2022/12/11 02:36:32;;;;;;;48.57;20.67;;;;;;;;;;5036619;28;20200;-45
2022/12/11 02:39:00;;;;;;;49.87;19.90;;;;;;;;;;5036272;28;20267;-43
2022/12/11 02:41:28;;;;;;;48.17;18.67;;;;;;;;;;5036389;28;20200;-44
2022/12/11 02:43:56;;;;;;;48.80;19.87;;;;;;;;;;5035567;28;20200;-44
2022/12/11 02:46:23;;;;;;;46.43;19.67;;;;;;;;;;5035444;28;20197;-44
2022/12/11 02:48:51;;;;;;;51.50;19.67;;;;;;;;;;5035192;28;20591;-44
2022/12/11 02:51:25;;;;;;;52.10;20.30;;;;;;;;;;5035505;28;20204;-44
2022/12/11 02:53:55;;;;;;;45.77;18.70;;;;;;;;;;5035463;28;20228;-44
2022/12/11 02:56:33;;;;;;;51.17;20.27;;;;;;;;;;5035184;28;20200;-44
2022/12/11 02:59:06;;;;;;;52.87;19.13;;;;;;;;;;5035867;28;20204;-44
2022/12/11 03:01:33;;;;;;;43.83;18.37;;;;;;;;;;5036361;28;20237;-44
2022/12/11 03:04:00;;;;;;;49.13;18.57;;;;;;;;;;5034916;28;20663;-44
2022/12/11 03:06:43;;;;;;;51.73;20.33;;;;;;;;;;5035834;28;20642;-45
2022/12/11 03:09:10;;;;;;;52.07;20.20;;;;;;;;;;5035678;28;20594;-44
2022/12/11 03:11:37;;;;;;;57.93;20.87;;;;;;;;;;5034762;28;20205;-44
2022/12/11 03:14:04;;;;;;;49.70;20.63;;;;;;;;;;5038181;28;20235;-47
2022/12/11 03:16:37;;;;;;;52.37;20.67;;;;;;;;;;5043068;28;20675;-44
2022/12/11 03:19:27;;;;;;;46.90;19.20;;;;;;;;;;5035256;28;20573;-44
2022/12/11 03:21:57;;;;;;;55.70;20.10;;;;;;;;;;5033986;28;20209;-44
2022/12/11 03:24:29;;;;;;;48.57;19.47;;;;;;;;;;5035234;28;20227;-45
2022/12/11 03:27:15;;;;;;;48.90;18.77;;;;;;;;;;5034078;28;20209;-44
2022/12/11 03:29:53;;;;;;;48.27;18.47;;;;;;;;;;5034815;28;20263;-44
2022/12/11 03:32:22;;;;;;;49.73;18.00;;;;;;;;;;5033527;28;20204;-44
2022/12/11 03:34:56;;;;;;;49.53;18.37;;;;;;;;;;5033840;28;20730;-45
2022/12/11 03:37:27;;;;;;;49.10;18.03;;;;;;;;;;5034010;28;20717;-45
2022/12/11 03:39:57;;;;;;;44.03;17.23;;;;;;;;;;5034436;28;20185;-45
2022/12/11 03:42:25;;;;;;;52.13;18.67;;;;;;;;;;5034165;28;20204;-46
2022/12/11 03:44:53;;;;;;;46.40;17.57;;;;;;;;;;5035052;28;20279;-46
2022/12/11 03:47:23;;;;;;;49.83;19.10;;;;;;;;;;5033715;28;20540;-44
2022/12/11 03:49:50;;;;;;;50.63;20.33;;;;;;;;;;5034263;28;20201;-45
2022/12/11 03:52:18;;;;;;;53.00;19.33;;;;;;;;;;5034341;28;20211;-44
2022/12/11 03:54:47;;;;;;;54.33;19.43;;;;;;;;;;5033923;28;20667;-44
2022/12/11 03:57:17;;;;;;;56.17;20.30;;;;;;;;;;5033927;28;20212;-44
2022/12/11 03:59:44;;;;;;;58.80;20.77;;;;;;;;;;5033947;28;20284;-43
2022/12/11 04:02:11;;;;;;;60.13;20.40;;;;;;;;;;5033724;28;20220;-44
2022/12/11 04:04:40;;;;;;;62.83;21.20;;;;;;;;;;5035111;28;20304;-44
2022/12/11 04:07:08;;;;;;;59.93;21.97;;;;;;;;;;5034796;28;20212;-44
2022/12/11 04:09:35;;;;;;;52.97;20.20;;;;;;;;;;5034655;28;20627;-44
2022/12/11 04:12:02;;;;;;;53.73;19.67;;;;;;;;;;5034708;28;20223;-44
2022/12/11 04:24:13;;;;;;;66.67;23.77;;;;;;;;;;5034759;28;20677;-44
2022/12/11 04:25:35;;;;;;;58.23;20.37;;;;;;;;;;5034983;28;20247;-44
2022/12/11 04:28:02;;;;;;;52.87;20.07;;;;;;;;;;5034538;28;20208;-45
2022/12/11 04:30:29;;;;;;;61.67;20.80;;;;;;;;;;5034434;28;20596;-44
2022/12/11 04:33:00;;;;;;;51.33;18.97;;;;;;;;;;5034747;28;20212;-44
2022/12/11 04:35:27;;;;;;;56.17;20.93;;;;;;;;;;5034436;28;20224;-45
2022/12/11 04:37:55;;;;;;;56.33;20.90;;;;;;;;;;5033928;28;20196;-44
2022/12/11 04:40:22;;;;;;;59.77;20.20;;;;;;;;;;5034358;28;20287;-45
2022/12/11 04:42:49;;;;;;;61.10;20.80;;;;;;;;;;5034393;28;20204;-44
2022/12/11 04:45:16;;;;;;;50.47;19.03;;;;;;;;;;5034392;28;20639;-44
2022/12/11 04:47:44;;;;;;;65.67;21.50;;;;;;;;;;5035231;28;20200;-44
2022/12/11 04:50:13;;;;;;;60.40;21.37;;;;;;;;;;5035004;28;20280;-44
2022/12/11 04:52:41;;;;;;;61.60;19.87;;;;;;;;;;5033583;28;20566;-44
2022/12/11 04:55:08;;;;;;;58.50;20.23;;;;;;;;;;5034390;28;20279;-44
2022/12/11 04:57:36;;;;;;;51.80;17.93;;;;;;;;;;5034480;28;20201;-44
2022/12/11 05:00:07;;;;;;;63.13;21.20;;;;;;;;;;5034462;28;20200;-44
2022/12/11 05:02:35;;;;;;;56.30;20.60;;;;;;;;;;5034473;28;20220;-44
2022/12/11 05:05:04;;;;;;;61.93;20.73;;;;;;;;;;5034450;28;20224;-46
2022/12/11 05:07:32;;;;;;;55.97;19.40;;;;;;;;;;5034156;28;20698;-45
2022/12/11 05:09:58;;;;;;;54.13;19.73;;;;;;;;;;5034353;28;20224;-44
2022/12/11 05:12:26;;;;;;;53.10;20.40;;;;;;;;;;5034170;28;20201;-44
2022/12/11 05:14:53;;;;;;;56.30;20.13;;;;;;;;;;5034374;28;20307;-45
2022/12/11 05:17:20;;;;;;;53.63;19.53;;;;;;;;;;5034200;28;20241;-44
2022/12/11 05:19:49;;;;;;;58.70;19.20;;;;;;;;;;5034108;28;20263;-44
2022/12/11 05:22:17;;;;;;;60.30;20.17;;;;;;;;;;5034037;28;20205;-44
2022/12/11 05:24:44;;;;;;;50.80;20.33;;;;;;;;;;5037429;28;20204;-44
2022/12/11 05:27:11;;;;;;;47.00;18.83;;;;;;;;;;5037896;28;20227;-45
2022/12/11 05:29:38;;;;;;;51.67;17.80;;;;;;;;;;5037882;28;20212;-44
2022/12/11 05:32:06;;;;;;;38.60;15.80;;;;;;;;;;5037597;28;20204;-44
2022/12/11 05:34:33;;;;;;;45.20;15.83;;;;;;;;;;5037585;28;20234;-44
2022/12/11 05:37:00;;;;;;;46.87;15.97;;;;;;;;;;5037540;28;20209;-44
2022/12/11 05:39:27;;;;;;;43.37;16.53;;;;;;;;;;5037398;28;20214;-44
2022/12/11 05:41:54;;;;;;;39.97;15.67;;;;;;;;;;5037651;28;20204;-44
2022/12/11 05:44:21;;;;;;;48.23;16.93;;;;;;;;;;5037314;28;20189;-44
2022/12/11 05:46:49;;;;;;;47.07;17.83;;;;;;;;;;5037444;28;20205;-44
2022/12/11 05:49:16;;;;;;;50.63;18.10;;;;;;;;;;5037494;28;20212;-44
2022/12/11 05:51:46;;;;;;;44.30;16.53;;;;;;;;;;5037189;28;20266;-44
2022/12/11 05:54:13;;;;;;;43.53;15.60;;;;;;;;;;5037248;28;20605;-44
2022/12/11 05:56:40;;;;;;;45.90;15.83;;;;;;;;;;5037357;28;20271;-44
2022/12/11 05:59:07;;;;;;;41.30;15.40;;;;;;;;;;5037245;28;20216;-45
2022/12/11 06:01:40;;;;;;;39.63;14.67;;;;;;;;;;5036786;28;20208;-46
2022/12/11 06:04:09;;;;;;;38.23;14.80;;;;;;;;;;5036909;28;20262;-44
2022/12/11 06:06:37;;;;;;;38.30;13.83;;;;;;;;;;5036796;28;20212;-45
2022/12/11 06:09:04;;;;;;;44.50;13.97;;;;;;;;;;5036748;28;20631;-44
2022/12/11 06:11:33;;;;;;;38.10;14.27;;;;;;;;;;5036859;28;20216;-44
2022/12/11 06:14:01;;;;;;;40.10;13.80;;;;;;;;;;5036311;28;20315;-45
2022/12/11 06:16:28;;;;;;;38.70;13.87;;;;;;;;;;5036532;28;20314;-44
2022/12/11 06:18:55;;;;;;;36.53;14.63;;;;;;;;;;5035948;28;20201;-44
2022/12/11 06:21:27;;;;;;;30.90;13.30;;;;;;;;;;5036466;28;20514;-44
2022/12/11 06:23:55;;;;;;;47.40;14.87;;;;;;;;;;5036552;28;20224;-45
2022/12/11 06:26:23;;;;;;;42.33;15.50;;;;;;;;;;5036122;28;20209;-44
2022/12/11 06:28:51;;;;;;;32.87;12.77;;;;;;;;;;5035671;28;20283;-45
2022/12/11 06:31:18;;;;;;;40.37;14.83;;;;;;;;;;5035647;28;20201;-44
2022/12/11 06:33:46;;;;;;;40.93;14.40;;;;;;;;;;5035810;28;20295;-46
2022/12/11 06:36:19;;;;;;;40.03;14.20;;;;;;;;;;5036158;28;20592;-44
2022/12/11 06:38:49;;;;;;;35.17;12.67;;;;;;;;;;5036086;28;20688;-44
2022/12/11 06:41:16;;;;;;;37.80;15.63;;;;;;;;;;5036289;28;20211;-44
2022/12/11 06:43:43;;;;;;;39.13;13.30;;;;;;;;;;5035719;28;20283;-45
2022/12/11 06:46:12;;;;;;;38.17;15.07;;;;;;;;;;5036023;28;20219;-44
2022/12/11 06:48:41;;;;;;;37.63;13.53;;;;;;;;;;5036037;28;20292;-45
2022/12/11 06:51:10;;;;;;;47.80;15.23;;;;;;;;;;5036246;28;20631;-44
2022/12/11 06:53:37;;;;;;;38.33;15.77;;;;;;;;;;5036086;28;20266;-44
2022/12/11 06:56:10;;;;;;;28.67;12.87;;;;;;;;;;5035857;28;20670;-44
2022/12/11 06:58:38;;;;;;;35.60;13.10;;;;;;;;;;5035815;28;20201;-43
2022/12/11 07:01:20;;;;;;;31.53;13.43;;;;;;;;;;5036089;28;20204;-44
2022/12/11 07:03:48;;;;;;;32.67;14.07;;;;;;;;;;5035780;28;20275;-44
2022/12/11 07:06:15;;;;;;;43.30;16.67;;;;;;;;;;5035755;28;20209;-44
2022/12/11 07:08:42;;;;;;;36.90;14.37;;;;;;;;;;5035932;28;20196;-45
2022/12/11 07:11:12;;;;;;;39.30;14.93;;;;;;;;;;5035847;28;20266;-44
2022/12/11 07:13:40;;;;;;;34.43;13.43;;;;;;;;;;5035828;28;20200;-44
2022/12/11 07:16:11;;;;;;;39.63;15.43;;;;;;;;;;5036659;28;20248;-44
2022/12/11 07:18:40;;;;;;;40.13;17.13;;;;;;;;;;5045463;28;20294;-44
2022/12/11 07:21:09;;;;;;;42.90;16.00;;;;;;;;;;5054280;28;20696;-48
2022/12/11 07:23:36;;;;;;;43.50;16.10;;;;;;;;;;5054459;28;20232;-44
2022/12/11 07:26:08;;;;;;;35.97;13.90;;;;;;;;;;5042031;28;20277;-48
2022/12/11 07:28:35;;;;;;;40.83;15.63;;;;;;;;;;5042098;28;20283;-44
2022/12/11 07:31:07;;;;;;;33.03;13.37;;;;;;;;;;5046102;28;20232;-45
2022/12/11 07:33:34;;;;;;;37.97;13.83;;;;;;;;;;5039125;28;20219;-46
2022/12/11 07:36:03;;;;;;;42.40;15.03;;;;;;;;;;5049693;28;20240;-45
2022/12/11 07:38:31;;;;;;;31.47;13.10;;;;;;;;;;5034500;28;20656;-44
2022/12/11 07:41:02;;;;;;;27.57;10.83;;;;;;;;;;5034991;28;20232;-44
2022/12/11 07:43:30;;;;;;;36.13;13.10;;;;;;;;;;5034543;28;20913;-47
2022/12/11 07:46:10;;;;;;;27.43;12.27;;;;;;;;;;5045873;28;20266;-46
2022/12/11 07:48:39;;;;;;;33.33;13.17;;;;;;;;;;5040285;28;20822;-45
2022/12/11 07:51:17;;;;;;;30.47;11.70;;;;;;;;;;5040036;28;20290;-43
2022/12/11 07:53:46;;;;;;;19.53;10.80;;;;;;;;;;5043186;28;20604;-47
2022/12/11 07:56:15;;;;;;;20.07;9.90;;;;;;;;;;5046573;28;20266;-44
2022/12/11 07:58:42;;;;;;;27.07;9.73;;;;;;;;;;5044661;28;20603;-44
2022/12/11 08:01:30;;;;;;;20.83;9.03;;;;;;;;;;5053661;28;20239;-44
2022/12/11 08:03:57;;;;;;;21.17;9.27;;;;;;;;;;5053757;28;20263;-45
2022/12/11 08:06:33;;;;;;;19.80;9.60;;;;;;;;;;5054004;28;20305;-43
2022/12/11 08:09:02;;;;;;;23.50;9.70;;;;;;;;;;5054245;28;20285;-44
2022/12/11 08:11:29;;;;;;;21.00;9.60;;;;;;;;;;5053715;28;20220;-42
2022/12/11 08:13:58;;;;;;;19.30;7.93;;;;;;;;;;5051512;28;20707;-44
2022/12/11 08:16:27;;;;;;;17.53;8.23;;;;;;;;;;5051731;28;20236;-44
2022/12/11 08:18:54;;;;;;;18.90;8.90;;;;;;;;;;5044974;28;20319;-44
2022/12/11 08:21:24;;;;;;;18.67;7.97;;;;;;;;;;5053911;28;20250;-43
2022/12/11 08:23:52;;;;;;;19.83;8.53;;;;;;;;;;5053866;28;20548;-44
2022/12/11 08:26:23;;;;;;;16.77;8.37;;;;;;;;;;5050786;28;20232;-48
2022/12/11 08:28:50;;;;;;;18.93;8.00;;;;;;;;;;5050163;28;20212;-47
2022/12/11 08:31:18;;;;;;;19.03;8.00;;;;;;;;;;5053430;28;20228;-44
2022/12/11 08:33:46;;;;;;;12.70;7.13;;;;;;;;;;5045489;28;20225;-43
2022/12/11 08:36:15;;;;;;;22.40;8.03;;;;;;;;;;5042074;28;20593;-48
2022/12/11 08:38:42;;;;;;;14.03;6.87;;;;;;;;;;5042202;28;20231;-45
2022/12/11 08:41:10;;;;;;;16.23;7.10;;;;;;;;;;5052657;28;20223;-44
2022/12/11 08:43:38;;;;;;;15.90;7.00;;;;;;;;;;5051774;28;20681;-43
2022/12/11 08:46:06;;;;;;;13.73;6.50;;;;;;;;;;5051302;28;20232;-45
2022/12/11 08:48:34;;;;;;;13.50;6.63;;;;;;;;;;5050690;28;20258;-43
2022/12/11 08:51:03;;;;;;;25.00;8.00;;;;;;;;;;5049309;28;20232;-52
2022/12/11 08:53:31;;;;;;;19.43;8.00;;;;;;;;;;5050751;28;20216;-48
2022/12/11 08:56:05;;;;;;;20.17;7.13;;;;;;;;;;5050419;28;20227;-46
2022/12/11 08:58:32;;;;;;;18.53;7.37;;;;;;;;;;5053985;28;20248;-53
2022/12/11 09:01:22;;;;;;;22.10;8.90;;;;;;;;;;5044875;28;20285;-48
2022/12/11 09:03:50;;;;;;;17.27;6.43;;;;;;;;;;5050018;28;20235;-45
2022/12/11 09:06:20;;;;;;;14.73;7.67;;;;;;;;;;5054773;28;20228;-47
2022/12/11 09:08:48;;;;;;;22.50;8.77;;;;;;;;;;5054949;28;20238;-49
2022/12/11 09:11:25;;;;;;;21.50;8.03;;;;;;;;;;5054136;28;20227;-50
2022/12/11 09:13:52;;;;;;;20.50;8.30;;;;;;;;;;5055843;28;20224;-51
2022/12/11 09:16:23;;;;;;;13.57;6.57;;;;;;;;;;5055293;28;20258;-49
2022/12/11 09:18:52;;;;;;;17.17;6.37;;;;;;;;;;5055561;28;20219;-46
2022/12/11 09:21:22;;;;;;;19.33;8.67;;;;;;;;;;5054772;28;20223;-47
2022/12/11 09:23:52;;;;;;;18.90;7.97;;;;;;;;;;5048611;28;20224;-46
2022/12/11 09:26:20;;;;;;;21.10;7.40;;;;;;;;;;5050343;28;20216;-46
2022/12/11 09:28:47;;;;;;;18.27;7.10;;;;;;;;;;5054413;28;20228;-47
2022/12/11 09:31:17;;;;;;;17.10;6.67;;;;;;;;;;5049345;28;20761;-47
2022/12/11 09:33:46;;;;;;;18.37;6.93;;;;;;;;;;5041381;28;20297;-50
2022/12/11 09:36:13;;;;;;;19.73;8.63;;;;;;;;;;5055148;28;20566;-46
2022/12/11 09:38:42;;;;;;;18.90;8.70;;;;;;;;;;5055489;28;20238;-46
2022/12/11 09:41:22;;;;;;;19.37;8.03;;;;;;;;;;5051762;28;20219;-48
2022/12/11 09:44:17;;;;;;;19.03;8.07;;;;;;;;;;5034755;28;20233;-47
2022/12/11 09:46:44;;;;;;;17.17;7.30;;;;;;;;;;5037065;28;20228;-49
2022/12/11 09:49:32;;;;;;;20.33;8.23;;;;;;;;;;5047481;28;20223;-52
2022/12/11 09:52:10;;;;;;;17.07;7.87;;;;;;;;;;5045749;28;20219;-50
2022/12/11 09:54:47;;;;;;;18.57;7.87;;;;;;;;;;5051543;28;20526;-47
2022/12/11 09:57:52;;;;;;;16.13;7.27;;;;;;;;;;5052510;28;20242;-46
2022/12/11 10:00:39;;;;;;;22.60;9.07;;;;;;;;;;5048121;28;20273;-48
2022/12/11 10:03:34;;;;;;;17.90;7.90;;;;;;;;;;5047954;28;20298;-46
2022/12/11 10:06:08;;;;;;;11.97;5.80;;;;;;;;;;5049520;28;20313;-46
2022/12/11 10:09:20;;;;;;;19.63;7.80;;;;;;;;;;5053839;28;20223;-48
2022/12/11 10:11:55;;;;;;;28.33;10.87;;;;;;;;;;5015826;28;20605;-45
2022/12/11 10:14:53;;;;;;;16.17;8.23;;;;;;;;;;5042835;28;20237;-47
2022/12/11 10:17:29;;;;;;;18.93;8.33;;;;;;;;;;5053900;28;20289;-47
2022/12/11 10:20:16;;;;;;;21.33;10.07;;;;;;;;;;5054981;28;20216;-48
2022/12/11 10:22:43;;;;;;;16.33;7.17;;;;;;;;;;5055467;28;20243;-47
2022/12/11 10:25:23;;;;;;;16.57;7.97;;;;;;;;;;5048683;28;20678;-46
2022/12/11 10:27:51;;;;;;;16.90;7.87;;;;;;;;;;5035262;28;20229;-47
2022/12/11 10:30:24;;;;;;;15.67;7.30;;;;;;;;;;5047430;28;20212;-46
2022/12/11 10:33:19;;;;;;;17.80;7.60;;;;;;;;;;5054306;28;20552;-45
2022/12/11 10:35:55;;;;;;;14.27;6.90;;;;;;;;;;5044530;28;20240;-45
2022/12/11 10:38:32;;;;;;;24.23;7.10;;;;;;;;;;5035246;28;20254;-45
2022/12/11 10:41:11;;;;;;;14.03;7.07;;;;;;;;;;5034554;28;20238;-45
2022/12/11 10:43:44;;;;;;;16.60;7.43;;;;;;;;;;5051325;28;20234;-46
2022/12/11 10:46:24;;;;;;;17.67;9.40;;;;;;;;;;5050640;28;20681;-49
2022/12/11 10:48:55;;;;;;;21.47;8.57;;;;;;;;;;5053395;28;20231;-49
2022/12/11 10:51:40;;;;;;;18.07;8.50;;;;;;;;;;5050620;28;20220;-46
2022/12/11 10:54:29;;;;;;;19.33;8.73;;;;;;;;;;5033216;28;20279;-46
2022/12/11 10:56:56;;;;;;;19.50;8.57;;;;;;;;;;5033551;28;20237;-45
2022/12/11 10:59:34;;;;;;;19.50;7.83;;;;;;;;;;5033708;28;20253;-45
2022/12/11 11:02:04;;;;;;;22.23;9.77;;;;;;;;;;5033329;28;20243;-49
2022/12/11 11:04:37;;;;;;;15.37;6.37;;;;;;;;;;5046196;28;20286;-46
2022/12/11 11:07:13;;;;;;;20.63;8.47;;;;;;;;;;5052353;28;20220;-46
2022/12/11 11:09:40;;;;;;;21.00;8.73;;;;;;;;;;5054363;28;20226;-46
2022/12/11 11:12:25;;;;;;;12.83;5.40;;;;;;;;;;5054622;28;20235;-52
2022/12/11 11:15:10;;;;;;;18.47;6.93;;;;;;;;;;5054722;28;20235;-45
2022/12/11 11:17:47;;;;;;;12.60;6.20;;;;;;;;;;5052303;28;20577;-47
2022/12/11 11:20:33;;;;;;;20.87;8.47;;;;;;;;;;5052461;28;20311;-46
2022/12/11 11:23:02;;;;;;;16.03;8.07;;;;;;;;;;5054041;28;20235;-46
2022/12/11 11:25:31;;;;;;;6.47;4.10;;;;;;;;;;5053426;28;20611;-50
2022/12/11 11:27:58;;;;;;;16.93;7.57;;;;;;;;;;5052391;28;20579;-45
2022/12/11 11:30:31;;;;;;;12.03;6.30;;;;;;;;;;5050133;28;20237;-46
2022/12/11 11:33:03;;;;;;;8.90;4.67;;;;;;;;;;5034640;28;20231;-47
2022/12/11 11:35:31;;;;;;;10.20;4.97;;;;;;;;;;5038058;28;20232;-46
2022/12/11 11:38:17;;;;;;;15.40;8.00;;;;;;;;;;5052929;28;20234;-49
2022/12/11 11:40:57;;;;;;;7.87;4.80;;;;;;;;;;5053476;28;20370;-44
2022/12/11 11:43:51;;;;;;;14.40;5.80;;;;;;;;;;5083607;28;20522;-46
2022/12/11 11:46:42;;;;;;;9.97;5.17;;;;;;;;;;5052490;28;20230;-45
2022/12/11 11:49:54;;;;;;;11.83;5.73;;;;;;;;;;5051180;28;20220;-46
2022/12/11 11:52:52;;;;;;;8.33;5.17;;;;;;;;;;5035457;28;20240;-46
2022/12/11 11:55:46;;;;;;;9.50;4.57;;;;;;;;;;5033112;28;20229;-45
2022/12/11 11:58:21;;;;;;;7.00;4.10;;;;;;;;;;5038181;28;20200;-45
2022/12/11 12:00:52;;;;;;;8.93;3.97;;;;;;;;;;5039398;28;20629;-46
2022/12/11 12:03:20;;;;;;;7.70;3.90;;;;;;;;;;5053093;28;20208;-48
2022/12/11 12:06:06;;;;;;;9.70;5.53;;;;;;;;;;5053943;28;20206;-46
2022/12/11 12:08:51;;;;;;;7.33;4.30;;;;;;;;;;5039797;28;20623;-47
2022/12/11 12:11:53;;;;;;;9.37;4.67;;;;;;;;;;5052283;28;20261;-45
2022/12/11 12:14:30;;;;;;;9.83;5.10;;;;;;;;;;5051267;28;20492;-47
2022/12/11 12:17:18;;;;;;;12.13;6.17;;;;;;;;;;5047717;28;20239;-45
2022/12/11 12:19:57;;;;;;;11.77;5.37;;;;;;;;;;5052006;28;20243;-45
2022/12/11 12:22:31;;;;;;;8.30;5.03;;;;;;;;;;5050437;28;20215;-44
2022/12/11 12:25:19;;;;;;;8.47;3.83;;;;;;;;;;5044836;28;20207;-46
2022/12/11 12:27:57;;;;;;;6.80;4.03;;;;;;;;;;5041911;28;20678;-43
2022/12/11 12:30:24;;;;;;;8.27;4.57;;;;;;;;;;5045085;28;20262;-45
2022/12/11 12:33:06;;;;;;;6.50;3.40;;;;;;;;;;5051917;28;20246;-43
2022/12/11 12:35:40;;;;;;;6.63;3.50;;;;;;;;;;5050202;28;20238;-44
2022/12/11 12:38:30;;;;;;;8.00;4.20;;;;;;;;;;5044188;28;20224;-44
2022/12/11 12:41:06;;;;;;;5.80;3.23;;;;;;;;;;5042980;28;20225;-45
2022/12/11 12:43:52;;;;;;;4.83;2.83;;;;;;;;;;5037020;28;20216;-44
2022/12/11 12:46:26;;;;;;;4.67;2.70;;;;;;;;;;5039106;28;20236;-49
2022/12/11 12:48:55;;;;;;;3.27;1.90;;;;;;;;;;5036868;28;20243;-44
2022/12/11 12:51:23;;;;;;;5.63;3.40;;;;;;;;;;5036795;28;20224;-44
2022/12/11 12:53:56;;;;;;;8.70;3.17;;;;;;;;;;5035902;28;20224;-45
2022/12/11 12:56:24;;;;;;;4.93;1.80;;;;;;;;;;5036459;28;20248;-43
2022/12/11 12:58:51;;;;;;;5.17;2.80;;;;;;;;;;5036531;28;20678;-48
2022/12/11 13:01:21;;;;;;;4.50;2.30;;;;;;;;;;5039047;28;20236;-44
2022/12/11 13:03:56;;;;;;;7.17;4.07;;;;;;;;;;5054004;28;20228;-51
2022/12/11 13:06:38;;;;;;;3.37;2.07;;;;;;;;;;5054080;28;20242;-45
2022/12/11 13:09:31;;;;;;;6.23;3.60;;;;;;;;;;5049800;28;20694;-46
2022/12/11 13:11:58;;;;;;;7.97;3.50;;;;;;;;;;5049430;28;20224;-45
2022/12/11 13:14:30;;;;;;;2.77;2.17;;;;;;;;;;5054416;28;20273;-47
2022/12/11 13:17:05;;;;;;;8.60;3.47;;;;;;;;;;5054010;28;20234;-48
2022/12/11 13:19:33;;;;;;;5.77;3.17;;;;;;;;;;5054394;28;20222;-46
2022/12/11 13:22:13;;;;;;;7.37;2.07;;;;;;;;;;5054566;28;20695;-45
2022/12/11 13:25:03;;;;;;;1.10;1.07;;;;;;;;;;5054604;28;20228;-48
2022/12/11 13:27:42;;;;;;;10.20;4.13;;;;;;;;;;5046348;28;20217;-51
2022/12/11 13:30:18;;;;;;;3.27;2.03;;;;;;;;;;5052856;28;20220;-46
2022/12/11 13:33:00;;;;;;;10.37;2.70;;;;;;;;;;5055132;28;20669;-46
2022/12/11 13:35:28;;;;;;;4.03;1.57;;;;;;;;;;5054880;28;20234;-44
2022/12/11 13:38:02;;;;;;;4.97;2.83;;;;;;;;;;5056057;28;20301;-45
2022/12/11 13:40:40;;;;;;;10.83;4.33;;;;;;;;;;5053782;28;20214;-45
2022/12/11 13:43:18;;;;;;;4.03;2.70;;;;;;;;;;5053224;28;20242;-46
2022/12/11 13:45:50;;;;;;;6.60;2.77;;;;;;;;;;5050017;28;20223;-45
2022/12/11 13:48:22;;;;;;;10.00;3.87;;;;;;;;;;5053728;28;20662;-45
2022/12/11 13:50:51;;;;;;;2.57;2.20;;;;;;;;;;5051471;28;20798;-43
2022/12/11 13:53:19;;;;;;;3.90;2.60;;;;;;;;;;5034617;28;20228;-44
2022/12/11 13:56:00;;;;;;;6.00;3.17;;;;;;;;;;5041496;28;20720;-43
2022/12/11 13:58:27;;;;;;;8.70;4.87;;;;;;;;;;5044679;28;20221;-45
2022/12/11 14:01:26;;;;;;;3.67;2.67;;;;;;;;;;5055176;28;20604;-43
2022/12/11 14:03:59;;;;;;;4.73;2.77;;;;;;;;;;5039884;28;20227;-44
2022/12/11 14:06:27;;;;;;;3.20;1.87;;;;;;;;;;5046913;28;20516;-45
2022/12/11 14:08:57;;;;;;;1.57;1.47;;;;;;;;;;5055723;28;20220;-43
2022/12/11 14:11:30;;;;;;;1.40;1.30;;;;;;;;;;5038042;28;20667;-44
2022/12/11 14:13:59;;;;;;;2.50;2.27;;;;;;;;;;5041160;28;20224;-45
2022/12/11 14:16:27;;;;;;;4.07;2.17;;;;;;;;;;5076082;28;20325;-48
2022/12/11 14:18:58;;;;;;;5.00;2.27;;;;;;;;;;5040968;28;20253;-45
2022/12/11 14:21:25;;;;;;;7.53;3.53;;;;;;;;;;5033962;28;20239;-45
2022/12/11 14:23:54;;;;;;;6.50;2.97;;;;;;;;;;5052001;28;20282;-42
2022/12/11 14:26:25;;;;;;;5.77;2.20;;;;;;;;;;5046778;28;20578;-47
2022/12/11 14:28:52;;;;;;;5.13;3.37;;;;;;;;;;5034649;28;20600;-45
2022/12/11 14:31:36;;;;;;;1.47;1.37;;;;;;;;;;5036647;28;20232;-44
2022/12/11 14:34:13;;;;;;;1.30;1.20;;;;;;;;;;5053538;28;20281;-47
2022/12/11 14:36:41;;;;;;;1.63;1.53;;;;;;;;;;5036824;28;20673;-45
2022/12/11 14:39:28;;;;;;;3.67;2.57;;;;;;;;;;5032953;28;20686;-47
2022/12/11 14:42:03;;;;;;;2.83;1.97;;;;;;;;;;5041685;28;20215;-50
2022/12/11 14:44:43;;;;;;;2.20;2.00;;;;;;;;;;5053109;28;20227;-49
2022/12/11 14:47:15;;;;;;;4.20;3.03;;;;;;;;;;5034488;28;20236;-46
2022/12/11 14:49:54;;;;;;;4.43;3.30;;;;;;;;;;5036511;28;20290;-47
2022/12/11 14:52:27;;;;;;;3.80;2.70;;;;;;;;;;5052920;28;20681;-46
2022/12/11 14:55:00;;;;;;;2.30;1.47;;;;;;;;;;5053865;28;20224;-46
2022/12/11 14:57:28;;;;;;;5.23;2.67;;;;;;;;;;5053378;28;20747;-45
2022/12/11 14:59:56;;;;;;;2.67;1.67;;;;;;;;;;5054145;28;20231;-48
2022/12/11 15:02:35;;;;;;;2.67;1.80;;;;;;;;;;5041929;28;20225;-44
2022/12/11 15:05:16;;;;;;;6.77;2.73;;;;;;;;;;5034420;28;20230;-44